Time;durP1;ratioP1;P1;durP2;ratioP2;P2;SDS_P1;SDS_P2;PMS_P1;PMS_P2;Temp;Humidity;BMP_temperature;BMP_pressure;BME280_temperature;BME280_humidity;BME280_pressure;Samples;Min_cycle;Max_cycle;Signal;HPM_P1;HPM_P2
2022/04/01 00:01:26;;;;;;;3.53;2.63;;;1.80;99.90;;;;;;4972808;28;20209;-53
2022/04/01 00:03:53;;;;;;;3.00;2.70;;;1.90;99.90;;;;;;4968117;28;20213;-53
2022/04/01 00:06:20;;;;;;;3.77;2.90;;;1.90;99.90;;;;;;4970051;28;20244;-54
2022/04/01 00:08:47;;;;;;;3.50;2.77;;;2.00;99.90;;;;;;4967929;28;20200;-54
2022/04/01 00:11:14;;;;;;;4.80;3.00;;;1.80;99.90;;;;;;4970076;28;20233;-53
2022/04/01 00:13:41;;;;;;;3.53;2.23;;;1.70;99.90;;;;;;4974755;28;20663;-55
2022/04/01 00:16:08;;;;;;;2.73;2.50;;;1.70;99.90;;;;;;4975466;28;20318;-53
2022/04/01 00:18:35;;;;;;;3.43;2.60;;;1.70;99.90;;;;;;4973233;28;20198;-53
2022/04/01 00:21:02;;;;;;;5.13;2.60;;;1.80;99.90;;;;;;4978669;28;20661;-52
2022/04/01 00:23:29;;;;;;;3.47;2.53;;;1.70;99.90;;;;;;4981891;28;20204;-55
2022/04/01 00:25:56;;;;;;;4.33;2.83;;;1.90;99.90;;;;;;4983410;28;20199;-53
2022/04/01 00:28:23;;;;;;;2.93;2.40;;;1.70;99.90;;;;;;4981672;28;20264;-54
2022/04/01 00:30:49;;;;;;;3.80;2.40;;;1.80;99.90;;;;;;4979837;28;20307;-54
2022/04/01 00:33:17;;;;;;;3.37;2.60;;;1.70;99.90;;;;;;4981014;28;20211;-53
2022/04/01 00:35:44;;;;;;;4.33;2.50;;;1.70;99.90;;;;;;4981879;28;20196;-52
2022/04/01 00:38:11;;;;;;;2.43;2.23;;;1.60;99.90;;;;;;4983736;28;20638;-55
2022/04/01 00:40:39;;;;;;;3.97;2.90;;;1.50;99.90;;;;;;4980639;28;20651;-54
2022/04/01 00:43:07;;;;;;;4.17;2.60;;;1.50;99.90;;;;;;4981962;28;20655;-54
2022/04/01 00:45:33;;;;;;;2.77;2.37;;;1.60;99.90;;;;;;4980186;28;20300;-53
2022/04/01 00:48:02;;;;;;;2.93;2.63;;;1.50;99.90;;;;;;4980940;28;20203;-52
2022/04/01 00:50:30;;;;;;;3.07;2.40;;;1.50;99.90;;;;;;4978337;28;20209;-53
2022/04/01 00:52:57;;;;;;;5.70;2.50;;;1.50;99.90;;;;;;4980155;28;20322;-53
2022/04/01 00:55:26;;;;;;;3.50;3.00;;;1.50;99.90;;;;;;4978225;28;20618;-54
2022/04/01 00:57:53;;;;;;;4.10;2.13;;;1.50;99.90;;;;;;4977216;28;20211;-54
2022/04/01 01:00:20;;;;;;;3.00;2.40;;;1.60;99.90;;;;;;4974739;28;20608;-54
2022/04/01 01:02:47;;;;;;;3.67;2.67;;;1.50;99.90;;;;;;4976934;28;20199;-54
2022/04/01 01:05:14;;;;;;;4.50;2.43;;;1.50;99.90;;;;;;4976626;28;20591;-55
2022/04/01 01:07:43;;;;;;;3.03;2.40;;;1.60;99.90;;;;;;4977024;28;20261;-53
2022/04/01 01:10:13;;;;;;;3.90;2.57;;;1.60;99.90;;;;;;4977609;28;20220;-52
2022/04/01 01:12:43;;;;;;;3.83;2.57;;;1.50;99.90;;;;;;4975787;28;20210;-55
2022/04/01 01:15:18;;;;;;;3.00;2.20;;;1.50;99.90;;;;;;4971688;28;20355;-55
2022/04/01 01:17:46;;;;;;;4.60;2.37;;;1.50;99.90;;;;;;4977250;28;20336;-53
2022/04/01 01:20:17;;;;;;;2.97;2.27;;;1.50;99.90;;;;;;4974427;28;20540;-53
2022/04/01 01:22:49;;;;;;;3.90;2.77;;;1.50;99.90;;;;;;4973991;28;20686;-53
2022/04/01 01:25:17;;;;;;;2.90;2.40;;;1.50;99.90;;;;;;4978310;28;20203;-56
2022/04/01 01:27:44;;;;;;;5.27;2.57;;;1.50;99.90;;;;;;4977735;28;20229;-53
2022/04/01 01:30:11;;;;;;;7.30;2.47;;;1.50;99.90;;;;;;4975421;28;20621;-52
2022/04/01 01:32:38;;;;;;;3.20;2.20;;;1.50;99.90;;;;;;4975411;28;20221;-52
2022/04/01 01:35:08;;;;;;;3.17;2.50;;;1.60;99.90;;;;;;4973464;28;20256;-53
2022/04/01 01:37:35;;;;;;;3.67;2.63;;;1.60;99.90;;;;;;4977182;28;20205;-52
2022/04/01 01:40:03;;;;;;;4.40;2.70;;;1.60;99.90;;;;;;4977594;28;20266;-56
2022/04/01 01:42:30;;;;;;;2.80;2.43;;;1.50;99.90;;;;;;4978678;28;20210;-54
2022/04/01 01:44:58;;;;;;;2.60;2.40;;;1.50;99.90;;;;;;4977581;28;20202;-53
2022/04/01 01:47:25;;;;;;;4.13;2.37;;;1.60;99.90;;;;;;4975170;28;20212;-53
2022/04/01 01:55:22;;;;;;;3.13;2.50;;;1.50;99.90;;;;;;4976877;28;20211;-51
2022/04/01 01:57:49;;;;;;;3.20;2.70;;;1.50;99.90;;;;;;4975873;28;20270;-53
2022/04/01 02:00:20;;;;;;;3.20;2.23;;;1.50;99.90;;;;;;4975241;28;20695;-54
2022/04/01 02:02:47;;;;;;;2.57;2.20;;;1.50;99.90;;;;;;4975815;28;20306;-53
2022/04/01 02:05:16;;;;;;;2.87;2.13;;;1.50;99.90;;;;;;4975124;28;20221;-55
2022/04/01 02:07:49;;;;;;;3.37;2.70;;;1.40;99.90;;;;;;4976970;28;20300;-54
2022/04/01 02:10:16;;;;;;;3.53;3.13;;;1.40;99.90;;;;;;4975007;28;20230;-54
2022/04/01 02:12:44;;;;;;;2.97;2.40;;;1.40;99.90;;;;;;4975479;28;20281;-53
2022/04/01 02:15:11;;;;;;;3.40;3.10;;;1.50;99.90;;;;;;4972076;28;20217;-54
2022/04/01 02:17:39;;;;;;;4.53;3.13;;;1.40;99.90;;;;;;4969670;28;20263;-53
2022/04/01 02:20:09;;;;;;;3.73;2.90;;;1.40;99.90;;;;;;4973487;28;20214;-54
2022/04/01 02:22:37;;;;;;;3.47;2.70;;;1.50;99.90;;;;;;4975753;28;20243;-54
2022/04/01 02:25:05;;;;;;;3.70;2.70;;;1.40;99.90;;;;;;4976444;28;20231;-53
2022/04/01 02:27:32;;;;;;;3.67;2.83;;;1.40;99.90;;;;;;4976101;28;20196;-53
2022/04/01 02:29:59;;;;;;;4.27;2.63;;;1.40;99.90;;;;;;4974022;28;20266;-52
2022/04/01 02:32:25;;;;;;;3.57;2.67;;;1.40;99.90;;;;;;4975602;28;20258;-53
2022/04/01 02:34:53;;;;;;;4.13;3.03;;;1.30;99.90;;;;;;4972476;28;20276;-53
2022/04/01 02:37:21;;;;;;;3.50;3.03;;;1.40;99.90;;;;;;4975105;28;20274;-52
2022/04/01 02:39:48;;;;;;;3.77;2.53;;;1.40;99.90;;;;;;4975683;28;20245;-54
2022/04/01 02:42:14;;;;;;;2.80;2.50;;;1.40;99.90;;;;;;4977505;28;20612;-54
2022/04/01 02:44:44;;;;;;;3.93;2.40;;;1.30;99.90;;;;;;4973739;28;20225;-54
2022/04/01 02:47:11;;;;;;;2.90;2.63;;;1.40;99.90;;;;;;4975489;28;20400;-53
2022/04/01 02:49:38;;;;;;;3.77;2.50;;;1.40;99.90;;;;;;4974895;28;20203;-54
2022/04/01 02:52:05;;;;;;;2.93;2.63;;;1.30;99.90;;;;;;4975389;28;20202;-54
2022/04/01 02:54:35;;;;;;;2.97;2.13;;;1.40;99.90;;;;;;4974009;28;20663;-54
2022/04/01 02:57:02;;;;;;;2.67;2.47;;;1.30;99.90;;;;;;4974574;28;20621;-53
2022/04/01 02:59:29;;;;;;;3.20;2.53;;;1.30;99.90;;;;;;4973366;28;20286;-52
2022/04/01 03:01:56;;;;;;;2.53;1.97;;;1.30;99.90;;;;;;4974164;28;20241;-52
2022/04/01 03:04:23;;;;;;;2.33;2.13;;;1.30;99.90;;;;;;4973645;28;20267;-52
2022/04/01 03:06:50;;;;;;;2.90;2.47;;;1.30;99.90;;;;;;4976203;28;20315;-54
2022/04/01 03:09:17;;;;;;;3.47;2.17;;;1.30;99.90;;;;;;4973931;28;20287;-55
2022/04/01 03:11:43;;;;;;;4.37;2.57;;;1.20;99.90;;;;;;4977471;28;20212;-53
2022/04/01 03:14:11;;;;;;;4.37;2.60;;;1.20;99.90;;;;;;4973175;28;20299;-54
2022/04/01 03:16:39;;;;;;;2.70;2.37;;;1.20;99.90;;;;;;4975351;28;20584;-53
2022/04/01 03:19:10;;;;;;;3.23;2.93;;;1.20;99.90;;;;;;4972596;28;20745;-54
2022/04/01 03:21:39;;;;;;;2.53;2.27;;;1.20;99.90;;;;;;4969640;28;21062;-54
2022/04/01 03:24:09;;;;;;;3.40;2.97;;;1.10;99.90;;;;;;4970315;28;20203;-53
2022/04/01 03:26:39;;;;;;;4.17;2.90;;;1.20;99.90;;;;;;4975220;28;20678;-52
2022/04/01 03:29:07;;;;;;;3.20;2.70;;;1.30;99.90;;;;;;4974942;28;20231;-55
2022/04/01 03:31:35;;;;;;;3.43;3.07;;;1.20;99.90;;;;;;4974594;28;20252;-55
2022/04/01 03:34:04;;;;;;;6.63;2.60;;;1.20;99.90;;;;;;4971759;28;20221;-54
2022/04/01 03:36:32;;;;;;;2.50;1.90;;;1.30;99.90;;;;;;4975672;28;20624;-52
2022/04/01 03:38:59;;;;;;;3.50;2.60;;;1.20;99.90;;;;;;4975499;28;20313;-55
2022/04/01 03:41:26;;;;;;;3.73;2.87;;;1.10;99.90;;;;;;4973512;28;20754;-52
2022/04/01 03:43:54;;;;;;;3.63;2.83;;;1.10;99.90;;;;;;4975766;28;20269;-53
2022/04/01 03:46:24;;;;;;;3.63;2.37;;;1.10;99.90;;;;;;4973461;28;20204;-54
2022/04/01 03:49:22;;;;;;;3.13;2.63;;;1.00;99.90;;;;;;4973427;28;20927;-54
2022/04/01 03:51:50;;;;;;;3.40;2.37;;;1.10;99.90;;;;;;4972926;28;20202;-51
2022/04/01 03:54:18;;;;;;;5.60;2.50;;;1.00;99.90;;;;;;4979319;28;21279;-54
2022/04/01 03:56:58;;;;;;;4.70;3.57;;;1.00;99.90;;;;;;4978356;28;20214;-55
2022/04/01 03:59:40;;;;;;;2.80;2.50;;;1.00;99.90;;;;;;4992601;28;20201;-55
2022/04/01 04:02:12;;;;;;;3.40;2.77;;;1.00;99.90;;;;;;4978075;28;20309;-54
2022/04/01 04:04:40;;;;;;;6.13;3.33;;;1.00;99.90;;;;;;4976607;28;20568;-54
2022/04/01 04:07:08;;;;;;;3.77;3.07;;;1.00;99.90;;;;;;4978598;28;20657;-54
2022/04/01 04:09:39;;;;;;;3.07;2.67;;;1.10;99.90;;;;;;4976485;28;20198;-54
2022/04/01 04:12:13;;;;;;;4.07;3.50;;;1.10;99.90;;;;;;4979363;28;20270;-55
2022/04/01 04:14:41;;;;;;;3.83;3.43;;;1.10;99.90;;;;;;4977154;28;20275;-55
2022/04/01 04:17:15;;;;;;;3.87;3.47;;;1.10;99.90;;;;;;4977276;28;20249;-52
2022/04/01 04:19:56;;;;;;;4.70;3.40;;;1.10;99.90;;;;;;4979256;28;20304;-53
2022/04/01 04:22:30;;;;;;;3.57;3.07;;;1.10;99.90;;;;;;4978621;28;20241;-53
2022/04/01 04:24:58;;;;;;;3.27;2.37;;;1.10;99.90;;;;;;4977231;28;20341;-55
2022/04/01 04:27:27;;;;;;;3.80;3.03;;;1.00;99.90;;;;;;4976677;28;20256;-54
2022/04/01 04:30:07;;;;;;;2.30;2.10;;;1.10;99.90;;;;;;4977125;28;20214;-53
2022/04/01 04:32:54;;;;;;;3.80;2.90;;;1.00;99.90;;;;;;4977201;28;20671;-55
2022/04/01 04:35:21;;;;;;;2.93;2.50;;;1.00;99.90;;;;;;4978487;28;20241;-55
2022/04/01 04:37:51;;;;;;;3.10;2.80;;;1.10;99.90;;;;;;4977907;28;20238;-53
2022/04/01 04:40:19;;;;;;;3.83;2.90;;;1.10;99.90;;;;;;4977721;28;20314;-54
2022/04/01 04:42:47;;;;;;;3.53;3.00;;;1.10;99.90;;;;;;4977825;28;20226;-53
2022/04/01 04:45:18;;;;;;;3.77;2.80;;;1.20;99.90;;;;;;4978360;28;20257;-55
2022/04/01 04:47:46;;;;;;;3.23;2.43;;;1.20;99.90;;;;;;4978630;28;20211;-53
2022/04/01 04:50:16;;;;;;;3.83;3.13;;;1.10;99.90;;;;;;4973412;28;20325;-54
2022/04/01 04:52:47;;;;;;;2.83;1.60;;;1.20;99.90;;;;;;4977402;28;20650;-55
2022/04/01 04:55:18;;;;;;;3.83;2.90;;;1.20;99.90;;;;;;4974990;28;20190;-54
2022/04/01 04:57:47;;;;;;;4.73;2.73;;;1.20;99.90;;;;;;4973887;28;20381;-52
2022/04/01 05:00:22;;;;;;;3.60;2.60;;;1.10;99.90;;;;;;4974648;28;20203;-54
2022/04/01 05:03:21;;;;;;;4.33;2.93;;;1.20;99.90;;;;;;4971386;28;20236;-55
2022/04/01 05:05:54;;;;;;;3.33;2.50;;;1.10;99.90;;;;;;4976164;28;20203;-52
2022/04/01 05:08:58;;;;;;;3.43;3.07;;;1.20;99.90;;;;;;4994581;28;20265;-51
2022/04/01 05:11:41;;;;;;;3.17;2.87;;;1.10;99.90;;;;;;4975000;28;20639;-52
2022/04/01 05:14:44;;;;;;;2.93;2.27;;;1.20;99.90;;;;;;4976727;28;20214;-52
2022/04/01 05:17:35;;;;;;;3.13;2.60;;;1.20;99.90;;;;;;4977959;28;20241;-54
2022/04/01 05:20:15;;;;;;;4.80;3.03;;;1.20;99.90;;;;;;4973063;28;20222;-54
2022/04/01 05:22:47;;;;;;;3.30;2.90;;;1.20;99.90;;;;;;4974168;28;20206;-52
2022/04/01 05:25:21;;;;;;;2.37;2.03;;;1.20;99.90;;;;;;4978214;28;20684;-54
2022/04/01 05:27:50;;;;;;;3.10;2.73;;;1.20;99.90;;;;;;4978188;28;20197;-53
2022/04/01 05:30:20;;;;;;;3.07;2.70;;;1.10;99.90;;;;;;4971188;28;20206;-55
2022/04/01 05:32:52;;;;;;;2.90;2.47;;;1.20;99.90;;;;;;4973473;28;20209;-54
2022/04/01 05:35:20;;;;;;;3.20;2.90;;;1.20;99.90;;;;;;4978989;28;20198;-55
2022/04/01 05:37:48;;;;;;;4.33;2.90;;;1.20;99.90;;;;;;4975918;28;20258;-55
2022/04/01 05:40:18;;;;;;;3.17;2.33;;;1.20;99.90;;;;;;4971744;28;20253;-55
2022/04/01 05:42:46;;;;;;;3.93;2.93;;;1.20;99.90;;;;;;4973637;28;20210;-54
2022/04/01 05:45:14;;;;;;;4.30;2.13;;;1.20;99.90;;;;;;4974625;28;20226;-53
2022/04/01 05:47:42;;;;;;;3.03;2.40;;;1.20;99.90;;;;;;4973144;28;20239;-55
2022/04/01 05:50:09;;;;;;;4.07;2.33;;;1.20;99.90;;;;;;4973051;28;20217;-55
2022/04/01 05:52:37;;;;;;;3.60;2.70;;;1.20;99.90;;;;;;4977266;28;20211;-54
2022/04/01 05:55:05;;;;;;;3.73;3.17;;;1.20;99.90;;;;;;4980227;28;20808;-57
2022/04/01 05:57:32;;;;;;;3.33;2.57;;;1.30;99.90;;;;;;4977686;28;20238;-54
2022/04/01 05:59:59;;;;;;;8.57;2.77;;;1.30;99.90;;;;;;4974721;28;20318;-55
2022/04/01 06:02:44;;;;;;;3.93;2.13;;;1.30;99.90;;;;;;4968524;28;20239;-55
2022/04/01 06:05:19;;;;;;;4.77;2.53;;;1.20;99.90;;;;;;4976867;28;20202;-54
2022/04/01 06:08:10;;;;;;;2.90;2.60;;;1.20;99.90;;;;;;4980046;28;20642;-53
2022/04/01 06:10:50;;;;;;;4.97;3.20;;;1.20;99.90;;;;;;4976778;28;20201;-54
2022/04/01 06:14:02;;;;;;;3.27;2.53;;;1.30;99.90;;;;;;4974514;28;20198;-53
2022/04/01 06:16:48;;;;;;;3.53;2.10;;;1.30;99.90;;;;;;4978064;28;20276;-55
2022/04/01 06:19:23;;;;;;;2.60;1.90;;;1.30;99.90;;;;;;4978377;28;20199;-54
2022/04/01 06:22:12;;;;;;;6.10;2.37;;;1.20;99.90;;;;;;4977642;28;20666;-54
2022/04/01 06:25:02;;;;;;;4.00;2.30;;;1.20;99.90;;;;;;4978424;28;20199;-55
2022/04/01 06:27:49;;;;;;;3.57;2.60;;;1.20;99.90;;;;;;4979375;28;20200;-54
2022/04/01 06:30:18;;;;;;;2.87;2.00;;;1.20;99.90;;;;;;4976259;28;20206;-54
2022/04/01 06:33:26;;;;;;;2.57;2.10;;;1.20;99.90;;;;;;4977850;28;20211;-62
2022/04/01 06:36:00;;;;;;;2.70;2.03;;;1.20;99.90;;;;;;4984999;28;20241;-54
2022/04/01 06:38:54;;;;;;;4.27;2.13;;;1.30;99.90;;;;;;4984347;28;20775;-56
2022/04/01 06:41:28;;;;;;;2.67;2.20;;;1.30;99.90;;;;;;4981135;28;20333;-54
2022/04/01 06:43:55;;;;;;;3.50;2.30;;;1.40;99.90;;;;;;4982520;28;20235;-54
2022/04/01 06:46:22;;;;;;;3.33;2.53;;;1.30;99.90;;;;;;4985382;28;20261;-53
2022/04/01 06:48:49;;;;;;;3.87;2.10;;;1.40;99.90;;;;;;4966192;28;20324;-53
2022/04/01 06:51:16;;;;;;;1.47;1.37;;;1.30;99.90;;;;;;4981939;28;20203;-55
2022/04/01 06:53:42;;;;;;;3.63;2.20;;;1.30;99.90;;;;;;4985448;28;20308;-54
2022/04/01 06:56:09;;;;;;;3.33;2.17;;;1.40;99.90;;;;;;4984794;28;20422;-54
2022/04/01 06:58:36;;;;;;;2.00;1.80;;;1.40;99.90;;;;;;4977631;28;20258;-53
2022/04/01 07:01:04;;;;;;;3.63;2.30;;;1.30;99.90;;;;;;4982580;28;20394;-53
2022/04/01 07:03:33;;;;;;;5.00;1.93;;;1.40;99.90;;;;;;4981014;28;20202;-55
2022/04/01 07:06:02;;;;;;;3.63;2.10;;;1.40;99.90;;;;;;4981652;28;20221;-55
2022/04/01 07:08:28;;;;;;;3.13;1.77;;;1.50;99.90;;;;;;4979880;28;20285;-55
2022/04/01 07:10:55;;;;;;;3.90;2.60;;;1.50;99.90;;;;;;4972806;28;20318;-52
2022/04/01 07:13:22;;;;;;;2.57;2.10;;;1.50;99.90;;;;;;4973867;28;20304;-54
2022/04/01 07:15:50;;;;;;;3.60;2.10;;;1.40;99.90;;;;;;4975270;28;20677;-53
2022/04/01 07:18:18;;;;;;;6.47;2.10;;;1.40;99.90;;;;;;4974354;28;20540;-54
2022/04/01 07:20:46;;;;;;;2.63;2.27;;;1.50;99.90;;;;;;4971015;28;20631;-54
2022/04/01 07:23:13;;;;;;;4.23;2.53;;;1.50;99.90;;;;;;4975025;28;20284;-54
2022/04/01 07:25:40;;;;;;;2.77;2.20;;;1.50;99.90;;;;;;4973118;28;20206;-54
2022/04/01 07:28:09;;;;;;;2.23;1.93;;;1.50;99.90;;;;;;4986375;28;20269;-55
2022/04/01 07:30:37;;;;;;;3.37;2.20;;;1.50;99.90;;;;;;4972980;28;20195;-54
2022/04/01 07:33:05;;;;;;;4.73;2.33;;;1.50;99.90;;;;;;4971455;28;20218;-55
2022/04/01 07:35:34;;;;;;;3.93;2.47;;;1.50;99.90;;;;;;4969375;28;20304;-54
2022/04/01 07:38:01;;;;;;;6.33;2.60;;;1.60;99.90;;;;;;4974503;28;20198;-54
2022/04/01 07:40:28;;;;;;;3.87;2.23;;;1.50;99.90;;;;;;4975675;28;21055;-52
2022/04/01 07:42:55;;;;;;;3.03;2.23;;;1.60;99.90;;;;;;4973438;28;20821;-56
2022/04/01 07:57:19;;;;;;;5.43;2.13;;;1.70;99.90;;;;;;4764019;23;20274;-77
2022/04/01 07:59:46;;;;;;;4.77;2.43;;;1.70;99.90;;;;;;5065411;28;20285;-79
2022/04/01 08:02:14;;;;;;;3.23;2.50;;;1.70;99.90;;;;;;5044888;28;20212;-79
2022/04/01 08:04:41;;;;;;;2.43;2.20;;;1.80;99.90;;;;;;5067047;28;20619;-80
2022/04/01 08:07:13;;;;;;;2.47;2.00;;;1.80;99.90;;;;;;5060663;28;20204;-78
2022/04/01 08:09:40;;;;;;;3.37;2.40;;;1.80;99.90;;;;;;5047726;28;20601;-77
2022/04/01 08:12:10;;;;;;;3.90;2.97;;;1.80;99.90;;;;;;5042730;28;20228;-79
2022/04/01 08:14:39;;;;;;;4.60;2.37;;;1.90;99.90;;;;;;5056630;28;20231;-78
2022/04/01 08:17:06;;;;;;;2.53;1.73;;;1.80;99.90;;;;;;5061641;28;20223;-77
2022/04/01 08:19:34;;;;;;;2.60;2.07;;;1.80;99.90;;;;;;5062385;28;20342;-78
2022/04/01 08:22:00;;;;;;;2.70;1.77;;;1.80;99.90;;;;;;5064254;28;20214;-79
2022/04/01 08:24:27;;;;;;;3.10;1.50;;;1.70;99.90;;;;;;5051984;28;20192;-79
2022/04/01 08:26:56;;;;;;;3.60;2.30;;;1.70;99.90;;;;;;5061914;28;20258;-77
2022/04/01 08:29:23;;;;;;;3.83;2.20;;;1.80;99.90;;;;;;5055741;28;20200;-77
2022/04/01 08:31:50;;;;;;;3.50;1.80;;;1.80;99.90;;;;;;5042162;28;20201;-79
2022/04/01 08:34:16;;;;;;;2.17;1.90;;;1.70;99.90;;;;;;5051367;28;20195;-78
2022/04/01 08:36:43;;;;;;;2.40;1.80;;;1.80;99.90;;;;;;5060344;28;20209;-77
2022/04/01 08:39:10;;;;;;;2.27;1.63;;;1.90;99.90;;;;;;5043834;28;20261;-79
2022/04/01 08:41:37;;;;;;;3.33;2.00;;;1.90;99.90;;;;;;5065880;28;20246;-78
2022/04/01 08:44:05;;;;;;;2.73;1.67;;;2.00;99.90;;;;;;5065000;28;20197;-79
2022/04/01 08:46:32;;;;;;;1.87;1.50;;;2.00;99.90;;;;;;5063607;28;20236;-78
2022/04/01 08:49:02;;;;;;;6.53;1.90;;;2.00;99.90;;;;;;5048869;28;20753;-80
2022/04/01 08:51:30;;;;;;;4.90;1.37;;;2.10;99.90;;;;;;5057543;28;20198;-78
2022/04/01 08:53:57;;;;;;;4.90;1.50;;;2.00;99.90;;;;;;5065452;28;20238;-77
2022/04/01 08:56:24;;;;;;;2.80;1.50;;;2.00;99.90;;;;;;5055561;28;20227;-77
2022/04/01 08:58:51;;;;;;;1.80;1.30;;;2.10;99.90;;;;;;5046312;28;20243;-79
2022/04/01 09:01:18;;;;;;;2.10;1.27;;;2.10;99.90;;;;;;5030531;28;20201;-77
2022/04/01 09:03:46;;;;;;;1.97;1.30;;;2.10;99.90;;;;;;5026261;28;20266;-78
2022/04/01 09:06:13;;;;;;;2.60;1.40;;;2.10;99.90;;;;;;5046847;28;20204;-77
2022/04/01 09:08:42;;;;;;;2.57;1.60;;;2.10;99.90;;;;;;5043437;28;20285;-77
2022/04/01 09:11:18;;;;;;;3.03;1.57;;;2.20;99.90;;;;;;5048795;28;20564;-76
2022/04/01 09:14:04;;;;;;;2.50;1.50;;;2.30;99.90;;;;;;5045253;28;20279;-77
2022/04/01 09:16:36;;;;;;;2.30;1.27;;;2.30;99.90;;;;;;5036182;28;20204;-78
2022/04/01 09:19:05;;;;;;;5.97;1.57;;;2.50;99.90;;;;;;5020930;28;20209;-78
2022/04/01 09:21:37;;;;;;;3.50;1.37;;;2.50;99.90;;;;;;5039576;28;20291;-78
2022/04/01 09:24:04;;;;;;;4.03;1.80;;;2.50;99.90;;;;;;5028896;28;20597;-79
2022/04/01 09:26:37;;;;;;;2.30;1.53;;;2.50;99.90;;;;;;5045558;28;20308;-77
2022/04/01 09:29:10;;;;;;;4.67;1.73;;;2.60;99.90;;;;;;5022313;28;20213;-76
2022/04/01 09:31:41;;;;;;;3.17;1.40;;;2.70;99.90;;;;;;5023685;28;20256;-76
2022/04/01 09:34:13;;;;;;;7.33;1.17;;;2.60;99.90;;;;;;5047858;28;20214;-78
2022/04/01 09:36:43;;;;;;;3.67;1.47;;;2.70;99.90;;;;;;5047839;28;20207;-76
2022/04/01 09:39:18;;;;;;;1.87;1.40;;;2.70;99.90;;;;;;5023818;28;20617;-80
2022/04/01 09:41:52;;;;;;;1.83;1.40;;;2.90;99.90;;;;;;5043600;28;20313;-79
2022/04/01 09:44:29;;;;;;;1.73;1.13;;;2.80;99.90;;;;;;5040883;28;20204;-77
2022/04/01 09:46:59;;;;;;;2.10;1.37;;;2.80;99.90;;;;;;5037176;28;20222;-80
2022/04/01 09:49:39;;;;;;;2.00;1.40;;;2.80;99.90;;;;;;5021872;28;20751;-77
2022/04/01 09:52:08;;;;;;;2.07;1.40;;;2.90;99.90;;;;;;5022075;28;20679;-77
2022/04/01 09:54:53;;;;;;;3.60;1.40;;;2.90;99.90;;;;;;5040085;28;20203;-78
2022/04/01 09:57:22;;;;;;;3.00;1.20;;;3.00;99.90;;;;;;5040659;28;20212;-80
2022/04/01 09:59:52;;;;;;;1.27;0.90;;;2.90;99.90;;;;;;5040491;28;20209;-79
2022/04/01 10:02:20;;;;;;;2.20;1.07;;;2.90;99.90;;;;;;5023585;28;20216;-76
2022/04/01 10:04:47;;;;;;;3.23;1.30;;;3.00;99.90;;;;;;5040999;28;20197;-77
2022/04/01 10:07:14;;;;;;;4.73;1.40;;;3.00;99.90;;;;;;5041295;28;20199;-76
2022/04/01 10:09:43;;;;;;;1.90;1.00;;;3.10;86.80;;;;;;5026813;28;20232;-76
2022/04/01 10:12:34;;;;;;;1.30;1.03;;;3.00;1.00;;;;;;5029724;28;20619;-81
2022/04/01 10:15:01;;;;;;;6.10;1.40;;;3.20;1.00;;;;;;5023574;28;20214;-77
2022/04/01 10:17:51;;;;;;;2.50;1.33;;;3.40;27.40;;;;;;5044617;28;20664;-78
2022/04/01 10:20:21;;;;;;;3.50;1.30;;;3.30;1.00;;;;;;5025932;28;20212;-77
2022/04/01 10:22:48;;;;;;;3.90;1.50;;;3.30;1.00;;;;;;5021327;28;20245;-77
2022/04/01 10:25:24;;;;;;;1.53;1.30;;;3.30;1.00;;;;;;5024341;28;20208;-76
2022/04/01 10:27:54;;;;;;;2.50;1.73;;;3.40;1.00;;;;;;5021472;28;20231;-78
2022/04/01 10:30:24;;;;;;;2.07;1.60;;;3.40;1.00;;;;;;5038958;28;20258;-77
2022/04/01 10:32:52;;;;;;;4.47;1.80;;;3.40;1.00;;;;;;5042539;28;20645;-76
2022/04/01 10:35:34;;;;;;;1.97;1.63;;;3.50;1.00;;;;;;5037900;28;20223;-79
2022/04/01 10:38:07;;;;;;;3.23;1.47;;;3.50;1.00;;;;;;5023871;28;20280;-77
2022/04/01 10:40:37;;;;;;;3.20;1.63;;;3.70;99.90;;;;;;5022644;28;20253;-76
2022/04/01 10:43:17;;;;;;;3.40;1.97;;;3.70;1.00;;;;;;5020276;28;20560;-76
2022/04/01 10:46:04;;;;;;;3.93;1.80;;;3.70;99.90;;;;;;5023863;28;20201;-77
2022/04/01 10:51:37;;;;;;;2.87;2.00;;;3.60;99.90;;;;;;5043317;28;20197;-77
2022/04/01 10:54:12;;;;;;;3.77;1.80;;;3.80;99.90;;;;;;5026133;28;20694;-78
2022/04/01 10:56:39;;;;;;;2.20;1.97;;;3.70;1.00;;;;;;5034249;28;20233;-79
2022/04/01 10:59:16;;;;;;;1.93;1.73;;;3.70;1.00;;;;;;5022339;28;20390;-77
2022/04/01 11:02:04;;;;;;;4.17;2.03;;;3.70;1.00;;;;;;5043393;28;20201;-76
2022/04/01 11:04:42;;;;;;;2.87;1.60;;;3.70;99.90;;;;;;5019961;28;20220;-78
2022/04/01 11:07:33;;;;;;;5.10;1.90;;;3.60;99.90;;;;;;5038971;28;20208;-78
2022/04/01 11:10:05;;;;;;;4.50;2.20;;;3.70;99.90;;;;;;5011738;28;20536;-83
2022/04/01 11:12:38;;;;;;;2.73;1.60;;;3.50;1.00;;;;;;5025394;28;20207;-82
2022/04/01 11:15:26;;;;;;;3.30;2.33;;;3.50;1.00;;;;;;5022818;28;20246;-85
2022/04/01 11:17:56;;;;;;;2.77;2.10;;;3.40;99.90;;;;;;5022856;28;20282;-78
2022/04/01 11:20:27;;;;;;;2.13;1.93;;;3.50;98.90;;;;;;5023919;28;20207;-78
2022/04/01 11:23:06;;;;;;;4.03;2.00;;;3.60;1.00;;;;;;5040616;28;20715;-79
2022/04/01 11:25:33;;;;;;;3.50;1.93;;;3.50;1.00;;;;;;5035907;28;20232;-82
2022/04/01 11:28:14;;;;;;;3.30;2.27;;;3.40;1.00;;;;;;5042317;28;20221;-78
2022/04/01 11:30:44;;;;;;;4.00;2.60;;;3.40;1.00;;;;;;5042812;28;20194;-79
2022/04/01 11:33:14;;;;;;;3.40;2.67;;;3.40;16.10;;;;;;5023805;28;20223;-77
2022/04/01 11:35:44;;;;;;;2.87;2.50;;;3.40;1.00;;;;;;5024547;28;20233;-78
2022/04/01 11:38:14;;;;;;;4.27;2.57;;;3.40;1.00;;;;;;5023451;28;20209;-77
2022/04/01 11:40:43;;;;;;;3.13;2.70;;;3.50;1.00;;;;;;5028883;28;20210;-77
2022/04/01 11:43:14;;;;;;;3.90;2.03;;;3.50;1.00;;;;;;5025216;28;20243;-78
2022/04/01 11:45:51;;;;;;;3.50;2.27;;;3.40;1.00;;;;;;5023852;28;20320;-77
2022/04/01 11:48:22;;;;;;;2.37;2.03;;;3.40;1.00;;;;;;5021530;28;20213;-77
2022/04/01 11:50:53;;;;;;;3.33;2.37;;;3.50;1.00;;;;;;5040616;28;20218;-80
2022/04/01 11:53:23;;;;;;;3.67;2.23;;;3.50;1.00;;;;;;5039462;28;20195;-77
2022/04/01 11:55:50;;;;;;;4.30;2.47;;;3.50;1.00;;;;;;5042882;28;20242;-79
2022/04/01 11:58:17;;;;;;;4.33;2.73;;;3.70;1.00;;;;;;5023593;28;20713;-77
2022/04/01 12:00:46;;;;;;;3.80;2.97;;;3.70;1.00;;;;;;5025778;28;20592;-77
2022/04/01 12:03:13;;;;;;;3.73;2.27;;;3.80;1.00;;;;;;5041277;28;20237;-80
2022/04/01 12:05:40;;;;;;;2.27;2.00;;;3.90;1.00;;;;;;5041024;28;20838;-78
2022/04/01 12:10:58;;;;;;;6.20;2.40;;;3.80;1.00;;;;;;5041852;28;20225;-78
2022/04/01 12:13:27;;;;;;;3.53;2.70;;;3.90;99.90;;;;;;5020591;28;20263;-77
2022/04/01 12:15:55;;;;;;;3.47;2.33;;;3.90;1.00;;;;;;5045525;28;20367;-78
2022/04/01 12:18:28;;;;;;;3.43;2.50;;;3.70;1.00;;;;;;5045203;28;20673;-77
2022/04/01 12:20:58;;;;;;;4.50;2.90;;;3.70;1.00;;;;;;5029011;28;20551;-76
2022/04/01 12:23:32;;;;;;;4.20;2.30;;;3.70;99.90;;;;;;5043289;28;20220;-77
2022/04/01 12:26:00;;;;;;;5.90;3.07;;;3.60;99.90;;;;;;5042909;28;20623;-76
2022/04/01 12:28:41;;;;;;;3.20;2.60;;;3.70;1.00;;;;;;5027997;28;20279;-76
2022/04/01 12:31:22;;;;;;;3.67;2.67;;;3.80;30.10;;;;;;5025091;28;20252;-76
2022/04/01 12:33:52;;;;;;;4.37;3.50;;;3.60;1.00;;;;;;5024436;28;20330;-79
2022/04/01 12:36:38;;;;;;;3.47;2.90;;;3.80;99.90;;;;;;5045445;28;20292;-79
2022/04/01 12:39:10;;;;;;;5.13;3.20;;;3.90;1.00;;;;;;5046614;28;20722;-77
2022/04/01 12:41:57;;;;;;;7.83;3.60;;;3.90;33.70;;;;;;5020712;28;20243;-77
2022/04/01 12:44:30;;;;;;;7.90;3.40;;;4.00;1.00;;;;;;5027279;28;20232;-76
2022/04/01 12:47:00;;;;;;;3.60;2.70;;;3.90;1.00;;;;;;5045349;28;20217;-78
2022/04/01 12:49:30;;;;;;;3.97;2.93;;;3.80;1.00;;;;;;5027747;28;20213;-78
2022/04/01 12:52:00;;;;;;;5.13;3.50;;;3.80;1.00;;;;;;5027649;28;20672;-77
2022/04/01 12:54:29;;;;;;;5.00;4.27;;;3.70;1.00;;;;;;5027295;28;20200;-77
2022/04/01 12:56:58;;;;;;;7.27;4.03;;;3.70;99.90;;;;;;5025136;28;20649;-78
2022/04/01 12:59:26;;;;;;;6.57;3.90;;;3.70;99.90;;;;;;5020924;28;20324;-78
2022/04/01 13:01:59;;;;;;;5.70;3.43;;;3.70;1.00;;;;;;5045061;28;20212;-78
2022/04/01 13:04:26;;;;;;;4.33;3.70;;;3.80;92.50;;;;;;5028698;28;20217;-79
2022/04/01 13:07:05;;;;;;;7.00;3.30;;;3.70;1.00;;;;;;5021683;28;20215;-78
2022/04/01 13:09:32;;;;;;;5.27;3.70;;;3.60;1.00;;;;;;5040633;28;20205;-79
2022/04/01 13:12:00;;;;;;;4.50;3.43;;;3.60;1.00;;;;;;5022646;28;20291;-78
2022/04/01 13:14:28;;;;;;;7.30;4.30;;;3.60;1.00;;;;;;5025341;28;20918;-78
2022/04/01 13:16:57;;;;;;;4.20;3.17;;;3.60;1.00;;;;;;5014426;28;20212;-77
2022/04/01 13:19:30;;;;;;;5.20;3.53;;;3.50;1.00;;;;;;5026664;28;20211;-78
2022/04/01 13:21:59;;;;;;;4.93;3.40;;;3.60;1.00;;;;;;5029402;28;20209;-77
2022/04/01 13:24:37;;;;;;;7.33;4.00;;;3.60;1.00;;;;;;5025164;28;20313;-76
2022/04/01 13:27:10;;;;;;;5.03;3.73;;;3.70;1.00;;;;;;5028919;28;20528;-79
2022/04/01 13:29:38;;;;;;;5.47;3.80;;;3.80;1.00;;;;;;5024020;28;20282;-77
2022/04/01 13:32:06;;;;;;;4.40;3.33;;;3.90;1.00;;;;;;5028542;28;20205;-76
2022/04/01 13:34:34;;;;;;;5.53;3.50;;;3.90;99.90;;;;;;5049737;28;20286;-78
2022/04/01 13:37:02;;;;;;;5.67;3.33;;;3.90;18.30;;;;;;5055081;28;20208;-79
2022/04/01 13:39:28;;;;;;;4.90;3.47;;;3.80;99.90;;;;;;5016703;28;20285;-77
2022/04/01 13:41:57;;;;;;;5.93;3.83;;;3.90;99.90;;;;;;5030609;28;20200;-79